createdAt,value
2022-10-03T00:01:50.388Z,9.90
2022-10-03T00:04:34.022Z,9.50
2022-10-03T00:07:16.539Z,9.50
2022-10-03T00:09:57.778Z,9.40
2022-10-03T00:12:49.158Z,9.30
2022-10-03T00:15:23.621Z,9.30
2022-10-03T00:18:04.943Z,10.10
2022-10-03T00:21:02.539Z,9.70
2022-10-03T00:23:42.349Z,9.60
2022-10-03T00:26:30.798Z,9.30
2022-10-03T00:29:31.696Z,9.50
2022-10-03T00:32:11.129Z,9.30
2022-10-03T00:34:58.560Z,10.00
2022-10-03T00:37:34.665Z,9.30
2022-10-03T00:40:33.574Z,9.10
2022-10-03T00:43:43.377Z,9.40
2022-10-03T00:46:43.592Z,9.50
2022-10-03T00:49:44.301Z,8.40
2022-10-03T00:52:41.455Z,9.40
2022-10-03T00:55:19.686Z,9.00
2022-10-03T00:58:33.853Z,9.50
2022-10-03T01:01:22.132Z,9.30
2022-10-03T01:04:05.449Z,9.60
2022-10-03T01:06:43.333Z,9.50
2022-10-03T01:09:24.056Z,9.30
2022-10-03T01:12:07.043Z,9.30
2022-10-03T01:15:08.363Z,9.40
2022-10-03T01:17:49.492Z,9.60
2022-10-03T01:20:29.803Z,9.10
2022-10-03T01:23:30.543Z,9.10
2022-10-03T01:26:11.724Z,10.10
2022-10-03T01:29:04.405Z,8.90
2022-10-03T01:31:41.044Z,9.40
2022-10-03T01:34:17.552Z,9.50
2022-10-03T01:36:55.771Z,9.40
2022-10-03T01:39:29.440Z,9.40
2022-10-03T01:42:02.640Z,9.90
2022-10-03T01:44:41.794Z,9.30
2022-10-03T01:47:20.777Z,9.50
2022-10-03T01:49:55.371Z,8.70
2022-10-03T01:52:32.297Z,9.20
2022-10-03T01:55:06.961Z,9.20
2022-10-03T01:57:41.423Z,9.00
2022-10-03T02:00:14.951Z,8.50
2022-10-03T02:02:49.587Z,10.00
2022-10-03T02:05:24.130Z,9.10
2022-10-03T02:07:59.779Z,9.30
2022-10-03T02:10:39.908Z,9.70
2022-10-03T02:13:15.072Z,9.20
2022-10-03T02:15:56.164Z,9.20
2022-10-03T02:18:35.965Z,8.40
2022-10-03T02:21:14.299Z,8.60
2022-10-03T02:23:45.273Z,8.30
2022-10-03T02:26:58.564Z,9.00
2022-10-03T02:30:02.031Z,8.80
2022-10-03T02:33:01.217Z,8.50
2022-10-03T02:36:05.806Z,9.30
2022-10-03T02:39:05.498Z,8.50
2022-10-03T02:41:52.570Z,9.20
2022-10-03T02:44:48.127Z,9.20
2022-10-03T02:47:46.551Z,9.30
2022-10-03T02:50:54.035Z,8.80
2022-10-03T02:53:48.805Z,8.70
2022-10-03T02:59:34.907Z,8.80
2022-10-03T03:02:32.535Z,9.30
2022-10-03T03:05:34.154Z,9.00
2022-10-03T03:08:33.817Z,9.70
2022-10-03T03:11:29.845Z,9.10
2022-10-03T03:14:29.225Z,9.20
2022-10-03T03:17:03.957Z,8.90
2022-10-03T03:19:46.254Z,9.20
2022-10-03T03:22:32.275Z,9.10
2022-10-03T03:25:31.616Z,9.20
2022-10-03T03:28:19.613Z,8.80
2022-10-03T03:30:57.440Z,8.60
2022-10-03T03:33:34.370Z,8.60
2022-10-03T03:36:12.045Z,9.10
2022-10-03T03:38:48.316Z,9.10
2022-10-03T03:41:33.074Z,9.40
2022-10-03T03:44:24.832Z,9.50
2022-10-03T03:47:14.698Z,9.00
2022-10-03T03:50:05.297Z,9.10
2022-10-03T03:52:47.181Z,9.40
2022-10-03T03:55:40.738Z,9.10
2022-10-03T04:01:06.834Z,9.50
2022-10-03T04:03:51.305Z,8.50
2022-10-03T04:06:36.519Z,8.50
2022-10-03T04:09:20.916Z,9.20
2022-10-03T04:11:59.284Z,9.10
2022-10-03T04:17:41.264Z,8.50
2022-10-03T04:20:20.327Z,9.20
2022-10-03T04:23:00.467Z,9.30
2022-10-03T04:26:02.336Z,9.20
2022-10-03T04:28:39.874Z,8.80
2022-10-03T04:31:24.103Z,9.40
2022-10-03T04:34:03.970Z,9.20
2022-10-03T04:37:09.579Z,8.90
2022-10-03T04:39:46.370Z,8.60
2022-10-03T04:42:27.121Z,9.10
2022-10-03T04:45:08.645Z,9.00
2022-10-03T04:47:46.304Z,9.30
2022-10-03T04:50:31.209Z,9.30
2022-10-03T04:53:13.126Z,8.40
2022-10-03T04:55:47.030Z,9.00
2022-10-03T04:58:26.926Z,8.90
2022-10-03T05:01:06.966Z,8.50
2022-10-03T05:03:47.177Z,9.30
2022-10-03T05:09:04.883Z,8.60
2022-10-03T05:11:50.472Z,8.90
2022-10-03T05:14:28.319Z,9.60
2022-10-03T05:17:06.325Z,9.10
2022-10-03T05:20:02.658Z,8.90
2022-10-03T05:22:43.810Z,8.50
2022-10-03T05:25:30.675Z,9.00
2022-10-03T05:28:08.112Z,8.50
2022-10-03T05:30:45.473Z,8.90
2022-10-03T05:33:25.658Z,8.90
2022-10-03T05:36:11.473Z,9.00
2022-10-03T05:39:25.600Z,9.00
2022-10-03T05:42:18.204Z,9.10
2022-10-03T05:44:47.310Z,9.20
2022-10-03T05:47:46.565Z,8.40
2022-10-03T05:50:36.182Z,9.00
2022-10-03T05:53:21.741Z,9.30
2022-10-03T05:56:03.173Z,8.80
2022-10-03T05:59:15.029Z,8.60
2022-10-03T06:05:03.833Z,8.90
2022-10-03T06:07:41.206Z,8.70
2022-10-03T06:10:49.583Z,9.00
2022-10-03T06:13:26.798Z,9.30
2022-10-03T06:16:10.531Z,8.50
2022-10-03T06:19:08.608Z,9.50
2022-10-03T06:22:18.148Z,9.20
2022-10-03T06:25:21.848Z,9.20
2022-10-03T06:28:38.293Z,8.90
2022-10-03T06:31:31.891Z,9.40
2022-10-03T06:37:01.935Z,9.60
2022-10-03T06:40:09.523Z,10.30
2022-10-03T06:43:10.926Z,9.40
2022-10-03T06:46:12.559Z,9.40
2022-10-03T06:57:14.384Z,9.90
2022-10-03T07:00:07.079Z,10.60
2022-10-03T07:03:21.658Z,10.60
2022-10-03T07:06:22.530Z,10.60
2022-10-03T07:12:31.558Z,10.70
2022-10-03T07:16:02.259Z,10.30
2022-10-03T07:18:57.638Z,10.50
2022-10-03T07:24:43.478Z,10.90
2022-10-03T07:27:25.718Z,10.70
2022-10-03T07:30:13.094Z,10.90
2022-10-03T07:33:14.629Z,10.70
2022-10-03T07:36:04.058Z,10.40
2022-10-03T07:38:59.779Z,10.70
2022-10-03T07:41:44.244Z,11.40
2022-10-03T07:44:43.977Z,11.00
2022-10-03T07:47:49.955Z,11.40
2022-10-03T07:50:54.075Z,11.50
2022-10-03T07:53:51.804Z,11.80
2022-10-03T07:56:41.392Z,11.80
2022-10-03T07:59:46.172Z,12.10
2022-10-03T08:02:44.363Z,11.90
2022-10-03T08:05:32.358Z,12.30
2022-10-03T08:08:23.539Z,11.90
2022-10-03T08:11:30.856Z,12.30
2022-10-03T08:14:11.497Z,11.80
2022-10-03T08:17:07.423Z,12.30
2022-10-03T08:20:14.650Z,12.70
2022-10-03T08:22:55.275Z,12.60
2022-10-03T08:25:30.625Z,13.20
2022-10-03T08:28:35.255Z,13.30
2022-10-03T08:31:27.717Z,13.10
2022-10-03T08:34:24.253Z,13.30
2022-10-03T08:37:23.909Z,13.50
2022-10-03T08:40:36.837Z,14.00
2022-10-03T08:43:52.445Z,13.60
2022-10-03T08:46:44.804Z,13.70
2022-10-03T08:49:31.145Z,13.90
2022-10-03T08:52:13.059Z,14.00
2022-10-03T08:55:09.004Z,13.90
2022-10-03T08:58:18.267Z,13.50
2022-10-03T09:01:19.934Z,13.10
2022-10-03T09:04:44.646Z,13.30
2022-10-03T09:07:39.334Z,13.30
2022-10-03T09:10:36.309Z,13.20
2022-10-03T09:13:47.631Z,13.50
2022-10-03T09:16:43.606Z,13.60
2022-10-03T09:19:41.649Z,14.00
2022-10-03T09:22:37.607Z,13.70
2022-10-03T09:25:39.472Z,13.70
2022-10-03T09:28:34.944Z,13.80
2022-10-03T09:31:21.942Z,13.80
2022-10-03T09:34:14.434Z,14.80
2022-10-03T09:37:23.017Z,15.70
2022-10-03T09:40:26.001Z,15.60
2022-10-03T09:43:26.807Z,16.30
2022-10-03T09:46:25.152Z,16.30
2022-10-03T09:49:29.702Z,16.50
2022-10-03T09:52:12.357Z,16.50
2022-10-03T09:55:01.737Z,16.30
2022-10-03T09:57:50.485Z,16.40
2022-10-03T10:00:22.895Z,16.40
2022-10-03T10:03:27.411Z,16.30
2022-10-03T10:06:24.680Z,16.50
2022-10-03T10:09:36.854Z,17.30
2022-10-03T10:12:27.972Z,16.70
2022-10-03T10:15:27.025Z,16.60
2022-10-03T10:18:32.667Z,17.00
2022-10-03T10:21:33.267Z,17.00
2022-10-03T10:24:27.307Z,17.20
2022-10-03T10:27:36.426Z,17.60
2022-10-03T10:30:16.398Z,17.50
2022-10-03T10:33:35.787Z,17.60
2022-10-03T10:37:07.055Z,17.20
2022-10-03T10:40:12.745Z,16.90
2022-10-03T10:43:17.565Z,16.00
2022-10-03T10:46:06.846Z,16.70
2022-10-03T10:49:11.312Z,16.40
2022-10-03T10:52:14.035Z,16.80
2022-10-03T10:55:21.009Z,17.00
2022-10-03T10:58:35.732Z,16.40
2022-10-03T11:01:38.308Z,16.60
2022-10-03T11:05:00.934Z,16.00
2022-10-03T11:08:13.228Z,15.30
2022-10-03T11:11:03.070Z,16.80
2022-10-03T11:14:09.410Z,17.30
2022-10-03T11:17:16.009Z,17.80
2022-10-03T11:20:26.572Z,18.10
2022-10-03T11:23:33.041Z,18.20
2022-10-03T11:26:34.863Z,18.70
2022-10-03T11:29:42.656Z,18.40
2022-10-03T11:32:50.920Z,18.10
2022-10-03T11:35:57.491Z,17.80
2022-10-03T11:38:28.808Z,17.70
2022-10-03T11:41:06.806Z,17.10
2022-10-03T11:44:12.005Z,17.00
2022-10-03T11:46:57.435Z,17.00
2022-10-03T11:49:50.574Z,17.00
2022-10-03T11:52:28.896Z,16.60
2022-10-03T11:55:17.955Z,16.80
2022-10-03T11:57:53.669Z,17.50
2022-10-03T12:00:24.506Z,16.90
2022-10-03T12:03:17.345Z,19.30
2022-10-03T12:06:13.704Z,17.10
2022-10-03T12:08:56.773Z,17.80
2022-10-03T12:11:30.715Z,17.60
2022-10-03T12:14:27.656Z,18.10
2022-10-03T12:17:15.196Z,18.20
2022-10-03T12:19:54.448Z,17.80
2022-10-03T12:22:35.547Z,17.90
2022-10-03T12:25:16.289Z,17.90
2022-10-03T12:27:51.691Z,18.00
2022-10-03T12:30:21.528Z,18.10
2022-10-03T12:33:06.877Z,17.70
2022-10-03T12:35:44.002Z,18.10
2022-10-03T12:38:26.452Z,17.90
2022-10-03T12:41:05.470Z,17.50
2022-10-03T12:43:49.280Z,17.70
2022-10-03T12:46:26.198Z,17.80
2022-10-03T12:49:04.775Z,17.30
2022-10-03T12:51:52.324Z,17.40
2022-10-03T12:54:37.151Z,17.30
2022-10-03T12:57:36.626Z,17.70
2022-10-03T13:00:08.767Z,17.60
2022-10-03T13:02:42.111Z,17.40
2022-10-03T13:05:32.159Z,17.20
2022-10-03T13:08:03.354Z,17.40
2022-10-03T13:10:41.955Z,17.40
2022-10-03T13:13:26.243Z,17.80
2022-10-03T13:16:13.321Z,17.60
2022-10-03T13:18:48.938Z,17.90
2022-10-03T13:21:44.599Z,18.10
2022-10-03T13:24:22.248Z,18.10
2022-10-03T13:26:57.967Z,17.80
2022-10-03T13:29:30.281Z,17.50
2022-10-03T13:32:17.360Z,17.90
2022-10-03T13:35:35.381Z,17.50
2022-10-03T13:38:19.415Z,17.80
2022-10-03T13:40:55.563Z,17.70
2022-10-03T13:43:30.112Z,16.90
2022-10-03T13:48:28.675Z,17.20
2022-10-03T13:51:02.453Z,17.50
2022-10-03T13:53:59.930Z,17.20
2022-10-03T13:56:44.964Z,16.80
2022-10-03T13:59:33.147Z,17.50
2022-10-03T14:02:16.428Z,17.00
2022-10-03T14:05:00.224Z,15.90
2022-10-03T14:07:41.640Z,17.30
2022-10-03T14:10:19.485Z,17.50
2022-10-03T14:12:59.554Z,18.00
2022-10-03T14:15:34.568Z,17.40
2022-10-03T14:18:14.437Z,17.80
2022-10-03T14:21:28.139Z,17.60
2022-10-03T14:24:06.639Z,17.40
2022-10-03T14:26:40.508Z,17.10
2022-10-03T14:29:20.369Z,17.20
2022-10-03T14:31:57.248Z,17.60
2022-10-03T14:34:37.212Z,16.40
2022-10-03T14:37:16.212Z,17.60
2022-10-03T14:39:58.541Z,17.50
2022-10-03T14:42:44.312Z,17.30
2022-10-03T14:45:16.171Z,17.10
2022-10-03T14:47:50.645Z,17.20
2022-10-03T14:50:22.450Z,16.70
2022-10-03T14:53:00.613Z,17.40
2022-10-03T14:55:33.485Z,16.60
2022-10-03T14:58:11.332Z,16.90
2022-10-03T15:00:45.897Z,16.80
2022-10-03T15:03:21.867Z,16.80
2022-10-03T15:06:00.213Z,17.10
2022-10-03T15:08:35.186Z,17.00
2022-10-03T15:11:06.417Z,16.70
2022-10-03T15:13:39.259Z,17.40
2022-10-03T15:16:10.001Z,16.70
2022-10-03T15:18:39.729Z,16.70
2022-10-03T15:21:17.519Z,16.10
2022-10-03T15:23:47.920Z,16.70
2022-10-03T15:26:19.616Z,16.30
2022-10-03T15:28:52.116Z,16.70
2022-10-03T15:31:29.948Z,16.80
2022-10-03T15:33:59.206Z,16.60
2022-10-03T15:36:31.996Z,16.60
2022-10-03T15:39:03.920Z,16.50
2022-10-03T15:41:37.817Z,16.30
2022-10-03T15:44:17.055Z,17.00
2022-10-03T15:46:48.978Z,16.60
2022-10-03T15:49:25.472Z,16.30
2022-10-03T15:51:55.558Z,17.20
2022-10-03T15:54:26.223Z,14.20
2022-10-03T15:56:57.195Z,16.80
2022-10-03T15:59:32.202Z,16.50
2022-10-03T16:02:09.301Z,16.20
2022-10-03T16:04:40.804Z,15.90
2022-10-03T16:07:12.438Z,16.00
2022-10-03T16:09:51.756Z,16.00
2022-10-03T16:12:50.672Z,15.80
2022-10-03T16:15:26.654Z,15.90
2022-10-03T16:17:59.999Z,15.80
2022-10-03T16:20:32.286Z,15.90
2022-10-03T16:23:11.605Z,15.20
2022-10-03T16:25:45.953Z,15.30
2022-10-03T16:28:19.153Z,15.90
2022-10-03T16:30:58.161Z,15.20
2022-10-03T16:33:31.175Z,14.70
2022-10-03T16:36:01.990Z,14.80
2022-10-03T16:38:37.496Z,15.10
2022-10-03T16:41:16.083Z,14.70
2022-10-03T16:43:56.939Z,14.20
2022-10-03T16:46:28.023Z,13.80
2022-10-03T16:49:17.121Z,14.00
2022-10-03T16:51:50.704Z,13.90
2022-10-03T16:54:21.149Z,14.60
2022-10-03T16:56:53.267Z,14.30
2022-10-03T16:59:24.082Z,13.80
2022-10-03T17:01:57.553Z,13.30
2022-10-03T17:04:29.998Z,13.30
2022-10-03T17:07:01.053Z,13.30
2022-10-03T17:09:37.741Z,13.20
2022-10-03T17:12:09.600Z,13.30
2022-10-03T17:14:42.547Z,13.30
2022-10-03T17:17:24.699Z,13.80
2022-10-03T17:20:00.911Z,13.70
2022-10-03T17:22:35.308Z,13.40
2022-10-03T17:25:07.233Z,12.70
2022-10-03T17:27:39.786Z,13.10
2022-10-03T17:30:28.253Z,13.50
2022-10-03T17:33:02.968Z,13.30
2022-10-03T17:35:41.608Z,12.40
2022-10-03T17:38:44.992Z,12.40
2022-10-03T17:41:23.431Z,12.30
2022-10-03T17:44:04.793Z,12.40
2022-10-03T17:46:43.553Z,12.20
2022-10-03T17:49:21.919Z,11.90
2022-10-03T17:51:52.410Z,12.00
2022-10-03T17:54:25.475Z,12.10
2022-10-03T17:56:57.092Z,11.70
2022-10-03T17:59:29.234Z,12.40
2022-10-03T18:02:04.993Z,12.30
2022-10-03T18:04:39.660Z,12.00
2022-10-03T18:07:13.262Z,12.00
2022-10-03T18:09:47.217Z,12.00
2022-10-03T18:12:23.327Z,12.10
2022-10-03T18:15:28.575Z,11.80
2022-10-03T18:18:34.403Z,12.10
2022-10-03T18:21:07.804Z,12.10
2022-10-03T18:23:54.774Z,12.40
2022-10-03T18:26:28.165Z,11.60
2022-10-03T18:29:06.971Z,11.10
2022-10-03T18:34:13.789Z,10.90
2022-10-03T18:36:48.815Z,11.10
2022-10-03T18:39:19.449Z,12.20
2022-10-03T18:41:50.166Z,10.90
2022-10-03T18:44:20.381Z,11.10
2022-10-03T18:46:52.969Z,11.20
2022-10-03T18:49:33.561Z,11.00
2022-10-03T18:52:12.790Z,11.60
2022-10-03T18:54:55.566Z,10.70
2022-10-03T18:57:27.052Z,10.70
2022-10-03T19:00:02.577Z,10.90
2022-10-03T19:02:36.965Z,11.10
2022-10-03T19:05:12.827Z,10.90
2022-10-03T19:07:50.009Z,10.30
2022-10-03T19:10:39.472Z,10.90
2022-10-03T19:13:18.896Z,10.40
2022-10-03T19:16:02.847Z,11.20
2022-10-03T19:18:41.659Z,10.60
2022-10-03T19:21:18.696Z,10.90
2022-10-03T19:23:52.508Z,10.70
2022-10-03T19:26:24.815Z,10.70
2022-10-03T19:28:56.481Z,10.40
2022-10-03T19:31:30.273Z,9.80
2022-10-03T19:34:01.273Z,10.40
2022-10-03T19:36:32.432Z,10.20
2022-10-03T19:39:03.037Z,10.60
2022-10-03T19:41:34.854Z,10.60
2022-10-03T19:44:08.802Z,10.30
2022-10-03T19:47:00.265Z,10.10
2022-10-03T19:49:33.498Z,10.20
2022-10-03T19:52:18.362Z,10.40
2022-10-03T19:54:54.117Z,10.30
2022-10-03T19:57:27.389Z,10.40
2022-10-03T19:59:59.251Z,10.10
2022-10-03T20:02:29.228Z,10.00
2022-10-03T20:04:58.702Z,10.20
2022-10-03T20:07:44.759Z,9.20
2022-10-03T20:10:41.137Z,10.30
2022-10-03T20:13:10.945Z,10.00
2022-10-03T20:15:44.282Z,9.90
2022-10-03T20:18:24.005Z,9.60
2022-10-03T20:20:55.204Z,10.00
2022-10-03T20:23:25.727Z,10.00
2022-10-03T20:26:00.484Z,9.80
2022-10-03T20:28:45.082Z,9.70
2022-10-03T20:33:44.459Z,9.80
2022-10-03T20:36:18.719Z,9.90
2022-10-03T20:39:03.713Z,9.60
2022-10-03T20:41:41.816Z,9.70
2022-10-03T20:44:17.905Z,9.90
2022-10-03T20:46:48.788Z,9.90
2022-10-03T20:49:28.061Z,9.70
2022-10-03T20:52:04.580Z,10.30
2022-10-03T20:54:37.750Z,9.90
2022-10-03T20:57:17.372Z,12.30
2022-10-03T20:59:48.112Z,10.00
2022-10-03T21:02:26.558Z,10.10
2022-10-03T21:05:00.921Z,9.90
2022-10-03T21:07:38.278Z,10.20
2022-10-03T21:10:19.479Z,9.90
2022-10-03T21:12:52.706Z,10.40
2022-10-03T21:15:30.833Z,10.10
2022-10-03T21:17:59.741Z,9.60
2022-10-03T21:20:35.488Z,9.10
2022-10-03T21:23:08.029Z,9.50
2022-10-03T21:25:39.069Z,9.90
2022-10-03T21:28:24.201Z,9.60
2022-10-03T21:31:22.697Z,9.10
2022-10-03T21:33:59.999Z,8.70
2022-10-03T21:36:35.181Z,9.50
2022-10-03T21:39:17.288Z,9.60
2022-10-03T21:41:57.896Z,9.50
2022-10-03T21:44:55.285Z,9.70
2022-10-03T21:47:34.641Z,10.30
2022-10-03T21:50:06.286Z,9.50
2022-10-03T21:52:50.603Z,9.60
2022-10-03T21:55:52.690Z,9.50
2022-10-03T21:58:35.336Z,9.40
2022-10-03T22:01:14.405Z,9.30
2022-10-03T22:03:52.378Z,9.20
2022-10-03T22:06:25.520Z,9.40
2022-10-03T22:08:54.910Z,9.20
2022-10-03T22:11:35.847Z,8.90
2022-10-03T22:14:14.311Z,9.30
2022-10-03T22:16:50.256Z,9.40
2022-10-03T22:19:22.275Z,9.00
2022-10-03T22:22:10.113Z,8.80
2022-10-03T22:24:48.846Z,9.60
2022-10-03T22:27:21.444Z,9.50
2022-10-03T22:29:57.161Z,9.10
2022-10-03T22:32:34.147Z,8.90
2022-10-03T22:35:20.426Z,9.20
2022-10-03T22:40:17.335Z,9.40
2022-10-03T22:42:48.819Z,9.30
2022-10-03T22:45:18.089Z,9.10
2022-10-03T22:47:53.430Z,9.30
2022-10-03T22:50:26.513Z,9.30
2022-10-03T22:55:26.131Z,9.20
2022-10-03T22:57:54.875Z,9.10
2022-10-03T23:00:26.090Z,9.30
2022-10-03T23:03:04.976Z,9.50
2022-10-03T23:05:56.942Z,9.20
2022-10-03T23:08:37.830Z,9.10
2022-10-03T23:11:15.371Z,9.10
2022-10-03T23:13:45.119Z,9.50
2022-10-03T23:16:29.657Z,8.40
2022-10-03T23:19:17.219Z,9.20
2022-10-03T23:21:46.634Z,9.20
2022-10-03T23:24:22.386Z,8.40
2022-10-03T23:27:17.416Z,9.20
2022-10-03T23:35:08.364Z,8.70
2022-10-03T23:37:42.025Z,8.60
2022-10-03T23:40:43.892Z,9.40
2022-10-03T23:43:27.261Z,8.70
2022-10-03T23:45:59.237Z,8.60
2022-10-03T23:48:30.129Z,8.90
2022-10-03T23:51:01.989Z,8.30
2022-10-03T23:53:33.313Z,8.80
2022-10-03T23:56:03.868Z,8.90
2022-10-03T23:58:34.067Z,8.80
